SCEL/SCL METAR and TAF weather

Enter ICAO airport designator
Station Type Date Time Source
SCEL METAR 2021/03/03 21:00 UTC NOAA

SCEL 032100Z 21016KT CAVOK 29/13 Q1013 NOSIG


Station Type Date Time Source
SCEL Decoded METAR 2021/03/03 21:00 UTC NOAA

Pudahuel, Chile (SCEL) 33-23S 070-47W 476M
Mar 03, 2021 - 04:00 PM EST / 2021.03.03 2100 UTC
Wind: from the SSW (210 degrees) at 18 MPH (16 KT):0
Visibility: greater than 7 mile(s):0
Temperature: 84 F (29 C)
Dew Point: 55 F (13 C)
Relative Humidity: 37%
Pressure (altimeter): 29.91 in. Hg (1013 hPa)
ob: SCEL 032100Z 21016KT CAVOK 29/13 Q1013 NOSIG
cycle: 21

Station Type Date Time Source
SCEL TAF 2021/03/03 18:03 UTC NOAA

TAF SCEL 031620Z 0318/0418 17010KT CAVOK TX31/0319Z TN15/0411Z
BECMG 0318/0320 21013KT
BECMG 0401/0403 15006KT
TEMPO 0408/0412 VRB02KT
BECMG 0415/0417 17010KT

Example: see airport list